Flight Track Log - Related Links

Times and Time Zones

All times are in EDT time to prevent confusion due to time zone crossing. See the THY6 flight status page for this flight to view local times or setup timezone preferences in your user account.

Time Position Orientation Groundspeed Altitude Reporting Facility
EDT Latitude Longitude Course Direction KTS MPH feet Rate Location/Type
Sat 11:19:43 PM 41.9710 -87.8840 171° South 2 2  Level FlightAware ADS-B
Sat 11:36:10 PM 41.9690 -87.8850 217° Southwest 15 17 46 Level FlightAware ADS-B
Sat 11:36:37 PM 41.9690 -87.8980 270° West 125 144 857 Level FlightAware ADS-B
Sat 11:37:06 PM 41.9690 -87.9280 270° West 186 214 800 1,966 Climbing FlightAware ADS-B
Sat 11:37:35 PM 41.9680 -87.9590 268° West 184 212 1,900 2,316 Climbing FlightAware ADS-B
Sat 11:38:03 PM 41.9680 -87.9920 270° West 184 212 3,000 1,759 Climbing FlightAware ADS-B
Sat 11:38:33 PM 41.9710 -88.0250 277° West 191 220 3,600 1,138 Climbing FlightAware ADS-B
Sat 11:39:01 PM 41.9830 -88.0580 296° West 199 229 4,100 875 Climbing FlightAware ADS-B
Sat 11:39:21 PM 41.9920 -88.0790 300° West 214 246 4,300 500 Climbing FlightAware ADS-B
Sat 11:39:37 PM 42.0000 -88.1000 297° West 229 264 4,400 682 Climbing FlightAware ADS-B
Sat 11:40:05 PM 42.0160 -88.1370 300° West 258 297 4,800 1,071 Climbing FlightAware ADS-B
Sat 11:40:33 PM 42.0360 -88.1750 305° West 287 330 5,400 1,731 Climbing FlightAware ADS-B
Sat 11:40:57 PM 42.0600 -88.2030 319° Northwest 295 339 6,300 2,167 Climbing FlightAware ADS-B
Sat 11:41:09 PM 42.0760 -88.2130 335° Northwest 301 346 6,700 2,100 Climbing FlightAware ADS-B
Sat 11:41:17 PM 42.0880 -88.2150 353° North 301 346 7,000 2,550 Climbing FlightAware ADS-B
Sat 11:41:49 PM 42.1250 -88.1900 27° Northeast 287 330 8,400 2,500 Climbing FlightAware ADS-B
Sat 11:42:17 PM 42.1430 -88.1480 60° Northeast 285 328 9,500 2,400 Climbing FlightAware ADS-B
Sat 11:42:29 PM 42.1540 -88.1330 45° Northeast 290 334 10,000 1,500 Climbing FlightAware ADS-B
Sat 11:43:09 PM 42.2050 -88.0950 29° Northeast 320 368 10,800 1,071 Climbing FlightAware ADS-B
Sat 11:43:53 PM 42.2660 -88.0510 28° Northeast 361 415 11,500 1,295 Climbing FlightAware ADS-B
Sat 11:44:37 PM 42.3320 -88.0010 29° Northeast 378 435 12,700 1,714 Climbing FlightAware ADS-B
Sat 11:45:17 PM 42.3940 -87.9560 28° Northeast 385 443 13,900 1,875 Climbing FlightAware ADS-B
Sat 11:45:57 PM 42.4570 -87.9100 28° Northeast 391 450 15,200 1,816 Climbing FlightAware ADS-B
Sat 11:46:33 PM 42.5130 -87.8680 29° Northeast 397 457 16,200 1,468 Climbing FlightAware ADS-B
Sat 11:47:31 PM 42.6110 -87.7950 29° Northeast 415 478 17,500 1,347 Climbing FlightAware ADS-B
Sat 11:48:11 PM 42.6800 -87.7440 29° Northeast 425 489 18,400 1,500 Climbing FlightAware ADS-B
Sat 11:48:47 PM 42.7410 -87.6980 29° Northeast 427 491 19,400 1,421 Climbing FlightAware ADS-B
Sat 11:49:27 PM 42.8100 -87.6460 29° Northeast 436 502 20,200 1,244 Climbing FlightAware ADS-B
Sat 11:50:09 PM 42.8780 -87.5760 37° Northeast 439 505 21,100 1,310 Climbing FlightAware ADS-B
Sat 11:50:54 PM 42.9500 -87.4990 38° Northeast 443 510 22,100 1,047 Climbing FlightAware ADS-B
Sat 11:51:35 PM 43.0160 -87.4270 39° Northeast 456 525 22,600 918 Climbing FlightAware ADS-B
Sat 11:52:19 PM 43.0900 -87.3460 39° Northeast 463 533 23,400 1,000 Climbing FlightAware ADS-B
Sat 11:52:59 PM 43.1580 -87.2720 38° Northeast 470 541 24,000 868 Climbing FlightAware ADS-B
Sat 11:53:35 PM 43.2190 -87.2050 39° Northeast 477 549 24,500 923 Climbing FlightAware ADS-B
Sat 11:54:17 PM 43.2900 -87.1260 39° Northeast 482 555 25,200 878 Climbing FlightAware ADS-B
Sat 11:54:57 PM 43.3620 -87.0460 39° Northeast 489 563 25,700 789 Climbing FlightAware ADS-B
Sat 11:55:33 PM 43.4250 -86.9760 39° Northeast 494 568 26,200 911 Climbing FlightAware ADS-B
Sat 11:56:16 PM 43.5000 -86.8920 39° Northeast 495 570 26,900 988 Climbing FlightAware ADS-B
Sat 11:56:58 PM 43.5760 -86.8070 39° Northeast 497 572 27,600 837 Climbing FlightAware ADS-B
Sat 11:57:42 PM 43.6520 -86.7210 39° Northeast 501 577 28,100 857 Climbing FlightAware ADS-B
Sat 11:58:22 PM 43.7260 -86.6370 39° Northeast 504 580 28,800 846 Climbing FlightAware ADS-B
Sat 11:59:00 PM 43.7940 -86.5610 39° Northeast 506 582 29,200 1,200 Climbing FlightAware ADS-B
Sat 11:59:42 PM 43.8700 -86.4740 40° Northeast 493 567 30,400 1,756 Climbing FlightAware ADS-B
Sun 12:00:22 AM 43.9380 -86.3970 39° Northeast 475 547 31,600 1,650 Climbing FlightAware ADS-B
Sun 12:01:02 AM 44.0070 -86.3180 39° Northeast 462 532 32,600 1,357 Climbing FlightAware ADS-B
Sun 12:01:46 AM 44.0780 -86.2360 40° Northeast 452 520 33,500 935 Climbing FlightAware ADS-B
Sun 12:02:19 AM 44.1300 -86.1760 40° Northeast 453 521 33,800 545 Climbing FlightAware ADS-B
Sun 12:03:03 AM 44.2010 -86.0940 40° Northeast 453 521 34,200 643 Climbing FlightAware ADS-B
Sun 12:03:43 AM 44.2650 -86.0210 39° Northeast 450 518 34,700 578 Climbing FlightAware ADS-B
Sun 12:04:26 AM 44.3350 -85.9400 40° Northeast 450 518 35,000 217 Climbing FlightAware ADS-B
Sun 12:05:06 AM 44.3990 -85.8650 40° Northeast 452 520 35,000  Level FlightAware ADS-B
Sun 12:05:47 AM 44.4640 -85.7890 40° Northeast 459 528 35,000  Level FlightAware ADS-B
Sun 12:06:31 AM 44.5360 -85.7050 40° Northeast 464 534 35,000  Level FlightAware ADS-B
Sun 12:07:10 AM 44.6020 -85.6280 40° Northeast 464 534 35,000  Level FlightAware ADS-B
Sun 12:07:50 AM 44.6670 -85.5510 40° Northeast 462 532 35,000  Level FlightAware ADS-B
Sun 12:08:30 AM 44.7310 -85.4710 42° Northeast 461 531 35,000  Level FlightAware ADS-B
Sun 12:09:10 AM 44.7900 -85.3950 42° Northeast 450 518 35,000  Level FlightAware ADS-B
Sun 12:09:46 AM 44.8490 -85.3210 42° Northeast 448 516 35,000  Level FlightAware ADS-B
Sun 12:10:28 AM 44.9130 -85.2390 42° Northeast 448 516 35,000  Level FlightAware ADS-B
Sun 12:11:19 AM 44.9920 -85.1390 42° Northeast 453 521 35,000  Level FlightAware ADS-B
Sun 12:11:57 AM 45.0480 -85.0670 42° Northeast 452 520 35,000  Level FlightAware ADS-B
Sun 12:12:45 AM 45.1240 -84.9700 42° Northeast 447 514 35,000  Level FlightAware ADS-B
Sun 12:13:25 AM 45.1850 -84.8910 42° Northeast 447 514 35,000  Level FlightAware ADS-B
Sun 12:14:05 AM 45.2450 -84.8130 42° Northeast 447 514 35,000  Level FlightAware ADS-B
Sun 12:14:49 AM 45.3130 -84.7250 42° Northeast 447 514 35,000  Level FlightAware ADS-B
Sun 12:15:52 AM 45.3970 -84.6160 42° Northeast 452 520 35,000  Level FlightAware ADS-B
Sun 12:16:31 AM 45.4710 -84.5200 42° Northeast 452 520 35,000  Level FlightAware ADS-B
Sun 12:17:15 AM 45.5370 -84.4330 43° Northeast 451 519 35,000  Level FlightAware ADS-B
Sun 12:17:56 AM 45.5990 -84.3520 42° Northeast 448 516 35,000  Level FlightAware ADS-B
Sun 12:18:39 AM 45.6650 -84.2650 43° Northeast 448 516 35,000  Level FlightAware ADS-B
Sun 12:19:21 AM 45.7300 -84.1790 43° Northeast 450 518 35,000  Level FlightAware ADS-B
Sun 12:20:01 AM 45.7870 -84.0930 46° Northeast 450 518 35,000  Level FlightAware ADS-B
Sun 12:20:45 AM 45.8470 -83.9950 49° Northeast 452 520 35,000  Level FlightAware ADS-B
Sun 12:21:17 AM 45.8910 -83.9220 49° Northeast 452 520 35,000  Level FlightAware ADS-B
Sun 12:22:01 AM 45.9520 -83.8230 48° Northeast 452 520 35,000  Level FlightAware ADS-B
Sun 12:22:45 AM 46.0120 -83.7240 49° Northeast 452 520 35,000  Level FlightAware ADS-B
Sun 12:23:26 AM 46.0680 -83.6320 49° Northeast 452 520 35,000  Level FlightAware ADS-B
Sun 12:24:09 AM 46.1280 -83.5340 49° Northeast 452 520 35,000  Level FlightAware ADS-B
Sun 12:24:49 AM 46.1830 -83.4420 49° Northeast 453 521 35,000  Level FlightAware ADS-B
Sun 12:25:31 AM 46.2410 -83.3460 49° Northeast 455 524 35,000  Level FlightAware ADS-B
Sun 12:26:11 AM 46.2940 -83.2570 49° Northeast 455 524 35,000  Level FlightAware ADS-B
Sun 12:26:49 AM 46.3480 -83.1670 49° Northeast 457 526 35,000  Level FlightAware ADS-B
Sun 12:27:33 AM 46.4100 -83.0630 49° Northeast 458 527 35,000  Level FlightAware ADS-B
Sun 12:28:09 AM 46.4580 -82.9820 49° Northeast 458 527 35,000  Level FlightAware ADS-B
Sun 12:28:49 AM 46.5130 -82.8880 50° Northeast 456 525 35,000  Level FlightAware ADS-B
Sun 12:29:29 AM 46.5680 -82.7960 49° Northeast 458 527 35,000  Level FlightAware ADS-B
Sun 12:30:10 AM 46.6240 -82.6990 50° Northeast 464 534 35,000  Level FlightAware ADS-B
Sun 12:30:47 AM 46.6760 -82.6110 49° Northeast 464 534 35,000  Level FlightAware ADS-B
Sun 12:31:31 AM 46.7370 -82.5060 50° Northeast 464 534 35,000  Level FlightAware ADS-B
Sun 12:32:11 AM 46.7930 -82.4100 50° Northeast 463 533 35,000  Level FlightAware ADS-B
Sun 12:32:55 AM 46.8530 -82.3060 50° Northeast 462 532 35,000  Level FlightAware ADS-B
Sun 12:33:34 AM 46.9060 -82.2140 50° Northeast 463 533 35,000  Level FlightAware ADS-B
Sun 12:34:18 AM 46.9680 -82.1060 50° Northeast 463 533 35,000  Level FlightAware ADS-B
Sun 12:34:58 AM 47.0210 -82.0130 50° Northeast 460 529 35,000  Level FlightAware ADS-B
Sun 12:35:34 AM 47.0700 -81.9270 50° Northeast 458 527 35,000  Level FlightAware ADS-B
Sun 12:36:14 AM 47.1250 -81.8310 50° Northeast 457 526 35,000  Level FlightAware ADS-B
Sun 12:36:59 AM 47.1840 -81.7270 50° Northeast 458 527 35,000  Level FlightAware ADS-B
Sun 12:37:38 AM 47.2380 -81.6300 51° Northeast 458 527 35,000  Level FlightAware ADS-B
Sun 12:38:22 AM 47.2980 -81.5240 50° Northeast 458 527 35,000  Level FlightAware ADS-B
Sun 12:39:03 AM 47.3520 -81.4280 50° Northeast 459 528 35,000  Level FlightAware ADS-B
Sun 12:39:44 AM 47.4080 -81.3270 51° Northeast 463 533 35,000  Level FlightAware ADS-B
Sun 12:40:31 AM 47.4730 -81.2100 51° Northeast 473 544 35,000  Level FlightAware ADS-B
Sun 12:41:11 AM 47.5290 -81.1090 51° Northeast 474 545 35,000  Level FlightAware ADS-B
Sun 12:41:54 AM 47.5870 -81.0050 50° Northeast 465 535 35,000  Level FlightAware ADS-B
Sun 12:42:36 AM 47.6440 -80.9000 51° Northeast 462 532 35,000  Level FlightAware ADS-B
Sun 12:43:15 AM 47.6980 -80.8030 50° Northeast 462 532 35,000  Level FlightAware ADS-B
Sun 12:43:59 AM 47.7560 -80.6950 51° Northeast 462 532 35,000  Level FlightAware ADS-B
Sun 12:44:35 AM 47.8040 -80.6060 51° Northeast 462 532 35,000  Level FlightAware ADS-B
Sun 12:45:15 AM 47.8580 -80.5070 51° Northeast 463 533 35,000  Level FlightAware ADS-B
Sun 12:46:00 AM 47.9180 -80.3970 51° Northeast 462 532 35,000  Level FlightAware ADS-B
Sun 12:46:38 AM 47.9680 -80.3030 52° Northeast 461 531 35,000  Level FlightAware ADS-B
Sun 12:47:39 AM 48.0420 -80.1650 51° Northeast 461 531 35,000  Level FlightAware ADS-B
Sun 12:48:15 AM 48.0830 -80.0900 51° Northeast 461 531 35,000  Level FlightAware ADS-B
Sun 12:49:03 AM 48.1380 -79.9880 51° Northeast 461 531 35,000  Level FlightAware ADS-B
Sun 12:49:27 AM 48.1650 -79.9380 51° Northeast 461 531 35,000  Level FlightAware ADS-B
Sun 12:50:15 AM 48.2200 -79.8360 51° Northeast 461 531 35,000  Level FlightAware ADS-B
Sun 12:51:01 AM 48.2730 -79.7390 51° Northeast 461 531 35,000  Level FlightAware ADS-B
Sun 12:51:37 AM 48.3140 -79.6630 51° Northeast 461 531 35,000  Level FlightAware ADS-B
Sun 12:52:13 AM 48.3550 -79.5860 51° Northeast 461 531 35,000  Level FlightAware ADS-B
Sun 12:53:26 AM 48.4380 -79.4310 51° Northeast 461 531 35,000  Level FlightAware ADS-B
Sun 12:54:14 AM 48.4930 -79.3290 51° Northeast 461 531 35,000  Level FlightAware ADS-B
Sun 12:54:51 AM 48.5350 -79.2510 51° Northeast 461 531 35,000  Level FlightAware ADS-B
Sun 12:55:39 AM 48.5900 -79.1480 51° Northeast 461 531 35,000  Level FlightAware ADS-B
Sun 12:56:15 AM 48.6310 -79.0720 51° Northeast 461 531 35,000  Level FlightAware ADS-B
Sun 12:57:40 AM 48.8500 -78.6000 51° Northeast 470 541 35,000  Level Toronto Center
Sun 12:58:40 AM 48.9000 -78.4333 65° Northeast 470 541 35,000  Level Toronto Center
Sun 12:59:40 AM 48.9833 -78.2833 50° Northeast 460 529 35,000  Level Toronto Center
Sun 01:00:40 AM 49.0667 -78.1000 55° Northeast 470 541 35,000  Level Toronto Center
Sun 01:01:40 AM 49.1500 -77.9500 50° Northeast 460 529 35,000  Level Toronto Center
Sun 01:02:40 AM 49.2333 -77.8000 50° Northeast 470 541 35,000  Level Toronto Center
Sun 01:03:40 AM 49.3167 -77.6333 52° Northeast 470 541 35,000  Level Toronto Center
Sun 01:04:40 AM 49.3833 -77.4833 56° Northeast 480 552 35,000  Level Toronto Center
Sun 01:05:44 AM 49.4833 -77.3333 44° Northeast 480 552 35,000  Level Montreal Center
Sun 01:06:44 AM 49.5500 -77.1500 61° Northeast 470 541 35,000  Level Montreal Center
Sun 01:07:44 AM 49.6333 -77.0000 49° Northeast 470 541 35,000  Level Montreal Center
Sun 01:08:44 AM 49.7167 -76.8167 55° Northeast 490 564 35,000  Level Montreal Center
Sun 01:09:44 AM 49.7833 -76.6667 55° Northeast 480 552 35,000  Level Montreal Center
Sun 01:10:44 AM 49.8667 -76.4833 55° Northeast 490 564 35,000  Level Montreal Center
Sun 01:11:44 AM 49.9333 -76.3000 60° Northeast 480 552 35,000  Level Montreal Center
Sun 01:12:44 AM 50.0333 -76.1500 44° Northeast 480 552 35,000  Level Montreal Center
Sun 01:13:44 AM 50.1167 -75.9667 55° Northeast 490 564 35,000  Level Montreal Center
Sun 01:14:44 AM 50.1833 -75.8000 58° Northeast 490 564 35,000  Level Montreal Center
Sun 01:15:44 AM 50.2833 -75.6167 49° Northeast 500 575 35,000  Level Montreal Center
Sun 01:16:44 AM 50.3500 -75.4333 60° Northeast 500 575 35,000  Level Montreal Center
Sun 01:17:44 AM 50.4333 -75.2500 54° Northeast 500 575 35,000  Level Montreal Center
Sun 01:18:44 AM 50.5167 -75.0667 54° Northeast 500 575 35,000  Level Montreal Center
Sun 01:19:44 AM 50.5833 -74.9000 58° Northeast 500 575 35,000  Level Montreal Center
Sun 01:20:44 AM 50.6667 -74.7167 54° Northeast 500 575 35,000  Level Montreal Center
Sun 01:21:44 AM 50.7333 -74.5333 60° Northeast 500 575 35,000  Level Montreal Center
Sun 01:22:44 AM 50.8167 -74.3333 57° Northeast 500 575 35,000  Level Montreal Center
Sun 01:23:44 AM 50.9000 -74.1833 49° Northeast 500 575 35,000  Level Montreal Center
Sun 01:24:44 AM 50.9833 -73.9667 59° Northeast 500 575 35,000  Level Montreal Center
Sun 01:25:44 AM 51.0667 -73.8000 51° Northeast 510 587 35,000  Level Montreal Center
Sun 01:26:44 AM 51.1500 -73.6000 56° Northeast 510 587 35,000  Level Montreal Center
Sun 01:27:44 AM 51.2167 -73.4167 60° Northeast 510 587 35,000  Level Montreal Center
Sun 01:28:44 AM 51.2833 -73.2167 62° Northeast 510 587 35,000  Level Montreal Center
Sun 01:29:44 AM 51.3667 -73.0333 54° Northeast 510 587 35,000  Level Montreal Center
Sun 01:30:44 AM 51.4500 -72.8333 56° Northeast 510 587 35,000  Level Montreal Center
Sun 01:31:44 AM 51.5167 -72.6333 62° Northeast 510 587 35,000  Level Montreal Center
Sun 01:32:44 AM 51.6000 -72.4667 51° Northeast 510 587 35,000  Level Montreal Center
Sun 01:33:44 AM 51.6833 -72.2500 58° Northeast 510 587 35,000  Level Montreal Center
Sun 01:34:44 AM 51.7667 -72.0500 56° Northeast 510 587 35,000  Level Montreal Center
Sun 01:35:44 AM 51.8333 -71.8500 62° Northeast 510 587 35,000  Level Montreal Center
Sun 01:36:44 AM 51.9167 -71.6500 56° Northeast 510 587 35,000  Level Montreal Center
Sun 01:37:44 AM 51.9833 -71.4833 57° Northeast 510 587 35,000  Level Montreal Center
Sun 01:38:44 AM 52.0667 -71.2500 60° Northeast 510 587 35,000  Level Montreal Center
Sun 01:39:44 AM 52.1500 -71.0833 51° Northeast 520 598 35,000  Level Montreal Center
Sun 01:40:44 AM 52.2167 -70.8833 61° Northeast 520 598 35,000  Level Montreal Center
Sun 01:41:44 AM 52.3000 -70.6500 60° Northeast 520 598 35,000  Level Montreal Center
Sun 01:42:44 AM 52.3667 -70.4500 61° Northeast 520 598 35,000  Level Montreal Center
Sun 01:43:44 AM 52.4500 -70.2667 53° Northeast 510 587 35,000  Level Montreal Center
Sun 01:44:44 AM 52.5167 -70.0667 61° Northeast 510 587 35,000  Level Montreal Center
Sun 01:45:44 AM 52.5833 -69.8333 65° Northeast 510 587 35,000  Level Montreal Center
Sun 01:46:44 AM 52.6667 -69.6333 55° Northeast 520 598 35,000  Level Montreal Center
Sun 01:47:44 AM 52.7333 -69.4167 63° Northeast 510 587 35,000  Level Montreal Center
Sun 01:48:44 AM 52.8167 -69.2167 55° Northeast 510 587 35,000  Level Montreal Center
Sun 01:49:44 AM 52.8833 -69.0333 59° Northeast 510 587 35,000  Level Montreal Center
Sun 01:50:44 AM 52.9333 -68.8333 67° East 510 587 35,000  Level Montreal Center
Sun 01:51:44 AM 53.0333 -68.6167 52° Northeast 510 587 35,000  Level Montreal Center
Sun 01:52:44 AM 53.1000 -68.4333 59° Northeast 510 587 35,000  Level Montreal Center
Sun 01:53:44 AM 53.1667 -68.2333 61° Northeast 510 587 35,000  Level Montreal Center
Sun 01:54:44 AM 53.2500 -68.0167 57° Northeast 510 587 35,000  Level Montreal Center
Sun 01:56:44 AM 53.4000 -67.6167 58° Northeast 520 598 35,000  Level Montreal Center
Sun 01:57:44 AM 53.4833 -67.4000 57° Northeast 510 587 35,000  Level Montreal Center
Sun 01:58:44 AM 53.5500 -67.1833 63° Northeast 510 587 35,000  Level Montreal Center
Sun 01:59:44 AM 53.6333 -67.0000 52° Northeast 510 587 35,000  Level Montreal Center
Sun 02:00:44 AM 53.7000 -66.7833 62° Northeast 500 575 35,000  Level Montreal Center
Sun 02:01:44 AM 53.7833 -66.6000 52° Northeast 510 587 35,000  Level Montreal Center
Sun 02:02:44 AM 53.8500 -66.3833 62° Northeast 510 587 35,000  Level Montreal Center
Sun 02:03:44 AM 53.9167 -66.1667 62° Northeast 510 587 35,000  Level Montreal Center
Sun 02:04:44 AM 53.9833 -65.9667 60° Northeast 510 587 35,000  Level Montreal Center
Sun 02:05:44 AM 54.0667 -65.7500 57° Northeast 510 587 35,000  Level Montreal Center
Sun 02:06:44 AM 54.1333 -65.5667 58° Northeast 510 587 35,000  Level Montreal Center
Sun 02:07:44 AM 54.2000 -65.3500 62° Northeast 510 587 35,000  Level Montreal Center
Sun 02:08:44 AM 54.2667 -65.1167 64° Northeast 510 587 35,000  Level Montreal Center
Sun 02:09:44 AM 54.3500 -64.9000 57° Northeast 510 587 35,000 50 Level Montreal Center
Sun 02:10:44 AM 54.4167 -64.6667 64° Northeast 510 587 35,100 450 Climbing Montreal Center
Sun 02:11:44 AM 54.4833 -64.4833 58° Northeast 510 587 35,900 650 Climbing Montreal Center
Sun 02:12:44 AM 54.5500 -64.2500 64° Northeast 510 587 36,400 550 Climbing Montreal Center
Sun 02:13:44 AM 54.6333 -64.0500 54° Northeast 510 587 37,000 300 Climbing Montreal Center
Sun 02:14:44 AM 54.6833 -63.8333 68° East 510 587 37,000  Level Montreal Center
Sun 02:15:44 AM 54.7667 -63.6000 58° Northeast 520 598 37,000  Level Montreal Center
Sun 02:16:44 AM 54.8333 -63.3833 62° Northeast 520 598 37,000  Level Montreal Center
Sun 02:17:44 AM 54.8833 -63.1500 69° East 520 598 37,000  Level Montreal Center
Sun 02:18:44 AM 54.9667 -62.9500 54° Northeast 520 598 37,000  Level Montreal Center
Sun 02:19:44 AM 55.0333 -62.7167 63° Northeast 510 587 37,000  Level Montreal Center
Sun 02:20:44 AM 55.1000 -62.4833 63° Northeast 510 587 37,000  Level Montreal Center
Sun 02:21:44 AM 55.1500 -62.2833 66° East 510 587 37,000  Level Montreal Center
Sun 02:22:44 AM 55.2333 -62.0500 58° Northeast 510 587 37,000  Level Montreal Center
Sun 02:23:44 AM 55.3000 -61.8500 60° Northeast 500 575 37,000  Level Montreal Center
Sun 02:24:44 AM 55.3500 -61.6500 66° East 470 541 37,000  Level Montreal Center
Sun 02:25:44 AM 55.4167 -61.4167 63° Northeast 480 552 37,000  Level Montreal Center
Sun 02:26:44 AM 55.4667 -61.1833 69° East 530 610 37,000  Level Montreal Center
Sun 02:27:44 AM 55.5500 -60.9500 58° Northeast 510 587 37,000  Level Montreal Center
Sun 02:28:44 AM 55.6000 -60.7333 68° East 500 575 37,000  Level Montreal Center
Sun 02:29:44 AM 55.6667 -60.5000 63° Northeast 500 575 37,000  Level Montreal Center
Sun 02:30:44 AM 55.7167 -60.3000 66° East 500 575 37,000  Level Montreal Center
Sun 02:31:44 AM 55.7833 -60.0500 65° Northeast 500 575 37,000  Level Montreal Center
Sun 02:32:44 AM 55.8500 -59.8500 59° Northeast 500 575 37,000  Level Montreal Center
Sun 02:33:44 AM 55.8833 -59.6500 73° East 500 575 37,000  Level Montreal Center
Sun 02:34:44 AM 55.9667 -59.4000 59° Northeast 490 564 37,000  Level Montreal Center
Sun 02:35:44 AM 56.0167 -59.1667 69° East 500 575 37,000  Level Montreal Center
Sun 02:36:44 AM 56.0667 -58.9500 67° East 510 587 37,000  Level Montreal Center
Sun 02:37:44 AM 56.1167 -58.7167 69° East 500 575 37,000  Level Montreal Center
Sun 02:38:52 AM 56.2000 -58.4833 57° Northeast 500 575 37,000  Level Gander Center
Sun 02:39:52 AM 56.2667 -58.2500 63° Northeast 500 575 37,000  Level Gander Center
Sun 02:40:52 AM 56.3167 -58.0333 67° East 500 575 37,000  Level Gander Center
Sun 02:41:52 AM 56.3500 -57.7833 76° East 510 587 37,000  Level Gander Center
Sun 02:42:52 AM 56.3833 -57.5500 75° East 510 587 37,000  Level Gander Center
Sun 02:43:52 AM 56.4000 -57.2667 84° East 510 587 37,000  Level Gander Center
Sun 02:44:52 AM 56.4333 -57.0167 76° East 510 587 37,000  Level Gander Center
Sun 02:45:52 AM 56.4500 -56.7833 83° East 510 587 37,000  Level Gander Center
Sun 02:46:52 AM 56.4833 -56.5000 78° East 510 587 37,000  Level Gander Center
Sun 02:47:52 AM 56.5000 -56.2667 83° East 520 598 37,000  Level Gander Center
Sun 02:48:52 AM 56.5500 -56.0167 70° East 530 610 37,000  Level Gander Center
Sun 02:49:52 AM 56.5667 -55.7333 84° East 530 610 37,000  Level Gander Center
Sun 02:50:52 AM 56.5833 -55.4833 83° East 510 587 37,000  Level Gander Center
Sun 02:51:52 AM 56.6167 -55.2167 77° East 520 598 37,000  Level Gander Center
Sun 02:52:52 AM 56.6333 -54.9667 83° East 530 610 37,000  Level Gander Center
Sun 02:53:52 AM 56.6667 -54.6833 78° East 530 610 37,000  Level Gander Center
Sun 02:54:52 AM 56.6833 -54.4333 83° East 530 610 37,000  Level Gander Center
Sun 02:55:52 AM 56.7000 -54.1833 83° East 520 598 37,000  Level Gander Center
Sun 02:56:52 AM 56.7500 -53.9167 71° East 520 598 37,000  Level Gander Center
Sun 02:57:52 AM 56.7667 -53.6667 83° East 520 598 37,000  Level Gander Center
Sun 02:58:52 AM 56.7833 -53.3833 84° East 530 610 37,000  Level Gander Center
Sun 02:59:52 AM 56.8000 -53.1000 84° East 540 621 37,000  Level Gander Center
Sun 03:00:52 AM 56.8167 -52.8167 84° East 540 621 37,000  Level Gander Center
Sun 03:01:52 AM 56.8333 -52.6000 82° East 530 610 37,000  Level Gander Center
Sun 03:02:52 AM 56.8500 -52.3333 83° East 520 598 37,000  Level Gander Center
Sun 03:04:00 AM 56.8709 -52.0453 82° East  Level FlightAware Approximate
Sun 03:11:00 AM 56.9855 -50.2595 83° East  Level FlightAware Approximate
Sun 03:12:00 AM 56.9998 -50.0036 84° East  Level FlightAware Approximate
Sun 03:13:00 AM 57.0336 -49.7532 76° East  Level FlightAware Approximate
Sun 03:14:00 AM 57.0672 -49.5030 76° East  Level FlightAware Approximate
Sun 03:15:00 AM 57.1002 -49.2523 76° East  Level FlightAware Approximate
Sun 03:16:00 AM 57.1328 -49.0012 76° East  Level FlightAware Approximate
Sun 03:17:00 AM 57.1648 -48.7497 77° East  Level FlightAware Approximate
Sun 03:18:00 AM 57.1964 -48.4977 77° East  Level FlightAware Approximate
Sun 03:19:00 AM 57.2274 -48.2453 77° East  Level FlightAware Approximate
Sun 03:20:00 AM 57.2579 -47.9925 77° East  Level FlightAware Approximate
Sun 03:21:00 AM 57.2879 -47.7392 78° East  Level FlightAware Approximate
Sun 03:22:00 AM 57.3175 -47.4856 78° East  Level FlightAware Approximate
Sun 03:23:00 AM 57.3464 -47.2315 78° East  Level FlightAware Approximate
Sun 03:24:00 AM 57.3770 -46.9779 77° East  Level FlightAware Approximate
Sun 03:25:00 AM 57.4073 -46.7239 77° East  Level FlightAware Approximate
Sun 03:26:00 AM 57.4371 -46.4696 78° East  Level FlightAware Approximate
Sun 03:27:00 AM 57.4665 -46.2148 78° East  Level FlightAware Approximate
Sun 03:28:00 AM 57.4953 -45.9596 78° East  Level FlightAware Approximate
Sun 03:29:00 AM 57.5234 -45.7040 79° East  Level FlightAware Approximate
Sun 03:30:00 AM 57.5506 -45.4479 79° East  Level FlightAware Approximate
Sun 03:31:00 AM 57.5773 -45.1913 79° East  Level FlightAware Approximate
Sun 03:32:00 AM 57.6035 -44.9344 79° East  Level FlightAware Approximate
Sun 03:33:00 AM 57.6292 -44.6771 79° East  Level FlightAware Approximate
Sun 03:34:00 AM 57.6543 -44.4195 80° East  Level FlightAware Approximate
Sun 03:35:00 AM 57.6789 -44.1615 80° East  Level FlightAware Approximate
Sun 03:36:00 AM 57.7030 -43.9032 80° East  Level FlightAware Approximate
Sun 03:37:00 AM 57.7266 -43.6445 80° East  Level FlightAware Approximate
Sun 03:38:00 AM 57.7496 -43.3855 80° East  Level FlightAware Approximate
Sun 03:39:00 AM 57.7721 -43.1261 81° East  Level FlightAware Approximate
Sun 03:40:00 AM 57.7941 -42.8665 81° East  Level FlightAware Approximate
Sun 03:41:00 AM 57.8155 -42.6065 81° East  Level FlightAware Approximate
Sun 03:42:00 AM 57.8364 -42.3462 81° East  Level FlightAware Approximate
Sun 03:43:00 AM 57.8568 -42.0857 82° East  Level FlightAware Approximate
Sun 03:44:00 AM 57.8767 -41.8248 82° East  Level FlightAware Approximate
Sun 03:45:00 AM 57.8960 -41.5636 82° East  Level FlightAware Approximate
Sun 03:46:00 AM 57.9147 -41.3022 82° East  Level FlightAware Approximate
Sun 03:47:00 AM 57.9330 -41.0405 82° East  Level FlightAware Approximate
Sun 03:48:00 AM 57.9507 -40.7785 83° East  Level FlightAware Approximate
Sun 03:49:00 AM 57.9678 -40.5163 83° East  Level FlightAware Approximate
Sun 03:50:00 AM 57.9845 -40.2539 83° East  Level FlightAware Approximate
Sun 03:51:00 AM 58.0012 -39.9914 75° East  Level FlightAware Approximate
Sun 03:52:00 AM 58.0374 -39.7357 75° East  Level FlightAware Approximate
Sun 03:53:00 AM 58.0730 -39.4795 75° East  Level FlightAware Approximate
Sun 03:54:00 AM 58.1081 -39.2228 75° East  Level FlightAware Approximate
Sun 03:55:00 AM 58.1427 -38.9656 76° East  Level FlightAware Approximate
Sun 03:56:00 AM 58.1768 -38.7079 76° East  Level FlightAware Approximate
Sun 03:57:00 AM 58.2104 -38.4497 76° East  Level FlightAware Approximate
Sun 03:58:00 AM 58.2434 -38.1910 76° East  Level FlightAware Approximate
Sun 03:59:00 AM 58.2760 -37.9318 76° East  Level FlightAware Approximate
Sun 04:00:00 AM 58.3080 -37.6722 77° East  Level FlightAware Approximate
Sun 04:01:00 AM 58.3394 -37.4121 77° East  Level FlightAware Approximate
Sun 04:02:00 AM 58.3704 -37.1515 77° East  Level FlightAware Approximate
Sun 04:03:00 AM 58.4008 -36.8905 77° East  Level FlightAware Approximate
Sun 04:04:00 AM 58.4307 -36.6290 78° East  Level FlightAware Approximate
Sun 04:05:00 AM 58.4600 -36.3671 78° East  Level FlightAware Approximate
Sun 04:06:00 AM 58.4888 -36.1048 78° East  Level FlightAware Approximate
Sun 04:07:00 AM 58.5171 -35.8420 78° East  Level FlightAware Approximate
Sun 04:08:00 AM 58.5448 -35.5788 78° East  Level FlightAware Approximate
Sun 04:09:00 AM 58.5720 -35.3152 79° East  Level FlightAware Approximate
Sun 04:10:00 AM 58.5987 -35.0512 79° East  Level FlightAware Approximate
Sun 04:11:00 AM 58.6248 -34.7868 79° East  Level FlightAware Approximate
Sun 04:12:00 AM 58.6504 -34.5220 79° East  Level FlightAware Approximate
Sun 04:13:00 AM 58.6754 -34.2569 80° East  Level FlightAware Approximate
Sun 04:14:00 AM 58.7000 -33.9913 80° East  Level FlightAware Approximate
Sun 04:15:00 AM 58.7240 -33.7254 80° East  Level FlightAware Approximate
Sun 04:16:00 AM 58.7474 -33.4592 80° East  Level FlightAware Approximate
Sun 04:17:00 AM 58.7703 -33.1925 80° East  Level FlightAware Approximate
Sun 04:18:00 AM 58.7927 -32.9256 81° East  Level FlightAware Approximate
Sun 04:19:00 AM 58.8145 -32.6583 81° East  Level FlightAware Approximate
Sun 04:20:00 AM 58.8357 -32.3906 81° East  Level FlightAware Approximate
Sun 04:21:00 AM 58.8564 -32.1227 81° East  Level FlightAware Approximate
Sun 04:22:00 AM 58.8765 -31.8544 82° East  Level FlightAware Approximate
Sun 04:23:00 AM 58.8961 -31.5858 82° East  Level FlightAware Approximate
Sun 04:24:00 AM 58.9151 -31.3169 82° East  Level FlightAware Approximate
Sun 04:25:00 AM 58.9336 -31.0477 82° East  Level FlightAware Approximate
Sun 04:26:00 AM 58.9515 -30.7783 83° East  Level FlightAware Approximate
Sun 04:27:00 AM 58.9689 -30.5085 83° East  Level FlightAware Approximate
Sun 04:28:00 AM 58.9856 -30.2385 83° East  Level FlightAware Approximate
Sun 04:29:00 AM 59.0044 -29.9692 75° East  Level FlightAware Approximate
Sun 04:30:00 AM 59.0413 -29.7065 75° East  Level FlightAware Approximate
Sun 04:31:00 AM 59.0778 -29.4433 75° East  Level FlightAware Approximate
Sun 04:32:00 AM 59.1137 -29.1794 75° East  Level FlightAware Approximate
Sun 04:33:00 AM 59.1490 -28.9151 75° East  Level FlightAware Approximate
Sun 04:34:00 AM 59.1838 -28.6502 76° East  Level FlightAware Approximate
Sun 04:35:00 AM 59.2181 -28.3848 76° East  Level FlightAware Approximate
Sun 04:36:00 AM 59.2519 -28.1188 76° East  Level FlightAware Approximate
Sun 04:37:00 AM 59.2851 -27.8523 76° East  Level FlightAware Approximate
Sun 04:38:00 AM 59.3177 -27.5853 76° East  Level FlightAware Approximate
Sun 04:39:00 AM 59.3498 -27.3178 77° East  Level FlightAware Approximate
Sun 04:40:00 AM 59.3814 -27.0498 77° East  Level FlightAware Approximate
Sun 04:41:00 AM 59.4124 -26.7813 77° East  Level FlightAware Approximate
Sun 04:42:00 AM 59.4428 -26.5123 77° East  Level FlightAware Approximate
Sun 04:43:00 AM 59.4728 -26.2429 78° East  Level FlightAware Approximate
Sun 04:44:00 AM 59.5021 -25.9729 78° East  Level FlightAware Approximate
Sun 04:45:00 AM 59.5309 -25.7025 78° East  Level FlightAware Approximate
Sun 04:46:00 AM 59.5591 -25.4316 78° East  Level FlightAware Approximate
Sun 04:47:00 AM 59.5868 -25.1603 78° East  Level FlightAware Approximate
Sun 04:48:00 AM 59.6139 -24.8885 79° East  Level FlightAware Approximate
Sun 04:49:00 AM 59.6404 -24.6164 79° East  Level FlightAware Approximate
Sun 04:50:00 AM 59.6664 -24.3437 79° East  Level FlightAware Approximate
Sun 04:51:00 AM 59.6918 -24.0707 79° East  Level FlightAware Approximate
Sun 04:52:00 AM 59.7167 -23.7972 80° East  Level FlightAware Approximate
Sun 04:53:00 AM 59.7409 -23.5234 80° East  Level FlightAware Approximate
Sun 04:54:00 AM 59.7646 -23.2491 80° East  Level FlightAware Approximate
Sun 04:55:00 AM 59.7878 -22.9745 80° East  Level FlightAware Approximate
Sun 04:56:00 AM 59.8103 -22.6995 81° East  Level FlightAware Approximate
Sun 04:57:00 AM 59.8323 -22.4241 81° East  Level FlightAware Approximate
Sun 04:58:00 AM 59.8537 -22.1484 81° East  Level FlightAware Approximate
Sun 04:59:00 AM 59.8745 -21.8723 81° East  Level FlightAware Approximate
Sun 05:00:00 AM 59.8948 -21.5959 82° East  Level FlightAware Approximate
Sun 05:01:00 AM 59.9145 -21.3192 82° East  Level FlightAware Approximate
Sun 05:02:00 AM 59.9336 -21.0421 82° East  Level FlightAware Approximate
Sun 05:03:00 AM 59.9521 -20.7647 82° East  Level FlightAware Approximate
Sun 05:04:00 AM 59.9700 -20.4870 83° East  Level FlightAware Approximate
Sun 05:05:00 AM 59.9874 -20.2090 83° East  Level FlightAware Approximate
Sun 05:06:00 AM 59.9987 -19.9303 92° East  Level FlightAware Approximate
Sun 05:07:00 AM 59.9932 -19.6502 92° East  Level FlightAware Approximate
Sun 05:08:00 AM 59.9871 -19.3702 92° East  Level FlightAware Approximate
Sun 05:09:00 AM 59.9804 -19.0903 93° East  Level FlightAware Approximate
Sun 05:10:00 AM 59.9731 -18.8106 93° East  Level FlightAware Approximate
Sun 05:11:00 AM 59.9652 -18.5310 93° East  Level FlightAware Approximate
Sun 05:12:00 AM 59.9567 -18.2515 93° East  Level FlightAware Approximate
Sun 05:13:00 AM 59.9477 -17.9721 94° East  Level FlightAware Approximate
Sun 05:14:00 AM 59.9380 -17.6929 94° East  Level FlightAware Approximate
Sun 05:15:00 AM 59.9277 -17.4139 94° East  Level FlightAware Approximate
Sun 05:16:00 AM 59.9169 -17.1351 94° East  Level FlightAware Approximate
Sun 05:17:00 AM 59.9055 -16.8564 95° East  Level FlightAware Approximate
Sun 05:18:00 AM 59.8935 -16.5780 95° East  Level FlightAware Approximate
Sun 05:19:00 AM 59.8809 -16.2997 95° East  Level FlightAware Approximate
Sun 05:20:00 AM 59.8677 -16.0217 95° East  Level FlightAware Approximate
Sun 05:21:00 AM 59.8539 -15.7439 96° East  Level FlightAware Approximate
Sun 05:22:00 AM 59.8396 -15.4663 96° East  Level FlightAware Approximate
Sun 05:23:00 AM 59.8246 -15.1890 96° East  Level FlightAware Approximate
Sun 05:24:00 AM 59.8091 -14.9120 96° East  Level FlightAware Approximate
Sun 05:25:00 AM 59.7930 -14.6351 96° East  Level FlightAware Approximate
Sun 05:26:00 AM 59.7763 -14.3586 97° East  Level FlightAware Approximate
Sun 05:27:00 AM 59.7591 -14.0823 97° East  Level FlightAware Approximate
Sun 05:28:00 AM 59.7412 -13.8064 97° East  Level FlightAware Approximate
Sun 05:29:00 AM 59.7228 -13.5307 97° East  Level FlightAware Approximate
Sun 05:29:47 AM 60.0070 -10.4420 98° East 581 669 37,000  Level FlightAware ADS-B
Sun 05:29:54 AM 60.0050 -10.4260 104° East 580 667 37,000  Level FlightAware ADS-B
Sun 05:30:00 AM 59.7038 -13.2553 98° East  Level FlightAware Approximate
Sun 05:30:50 AM 59.9620 -10.1450 107° East 579 666 37,000  Level FlightAware ADS-B
Sun 05:31:32 AM 59.9270 -9.9130 107° East 580 667 37,000  Level FlightAware ADS-B
Sun 05:32:17 AM 59.8940 -9.6860 106° East 579 666 37,000  Level FlightAware ADS-B
Sun 05:32:58 AM 59.8620 -9.4790 107° East 577 664 37,000  Level FlightAware ADS-B
Sun 05:33:48 AM 59.8320 -9.2690 106° East 577 664 37,000  Level FlightAware ADS-B
Sun 05:34:31 AM 59.7900 -9.0100 106° East 575 662 37,000  Level FlightAware ADS-B
Sun 05:34:32 AM 59.7816 -8.9617 106° East 460 529 37,000  Level FlightAware UK
Sun 05:35:02 AM 59.7579 -8.8119 106° East 460 529 37,000  Level FlightAware UK
Sun 05:35:11 AM 59.7600 -8.8200 106° East 575 662 37,000  Level FlightAware ADS-B
Sun 05:35:59 AM 59.7210 -8.5750 107° East 576 663 37,000  Level FlightAware ADS-B
Sun 05:36:32 AM 59.6861 -8.3597 107° East 460 529 37,000  Level FlightAware UK
Sun 05:36:39 AM 59.6880 -8.3740 107° East 576 663 37,000  Level FlightAware ADS-B
Sun 05:37:19 AM 59.6550 -8.1730 108° East 576 663 37,000  Level FlightAware ADS-B
Sun 05:38:00 AM 59.6210 -7.9650 108° East 575 662 37,000  Level FlightAware ADS-B
Sun 05:38:02 AM 59.6122 -7.9104 108° East 460 529 37,000  Level FlightAware UK
Sun 05:38:33 AM 59.5872 -7.7602 108° East 460 529 37,000  Level FlightAware UK
Sun 05:38:44 AM 59.5850 -7.7510 108° East 575 662 37,000  Level FlightAware ADS-B
Sun 05:39:33 AM 59.5366 -7.4631 108° East 460 529 37,000  Level FlightAware UK
Sun 05:39:33 AM 59.5490 -7.5340 108° East 575 662 37,000  Level FlightAware ADS-B
Sun 05:40:03 AM 59.5112 -7.3148 108° East 460 529 37,000  Level FlightAware UK
Sun 05:40:13 AM 59.5080 -7.2980 108° East 574 661 37,000  Level FlightAware ADS-B
Sun 05:40:58 AM 59.4710 -7.0820 109° East 574 661 37,000  Level FlightAware ADS-B
Sun 05:41:32 AM 59.4420 -6.9200 109° East 574 661 37,000  Level FlightAware ADS-B
Sun 05:42:10 AM 59.4070 -6.7180 109° East 575 662 37,000  Level FlightAware ADS-B
Sun 05:43:09 AM 59.3502 -6.4023 109° East 460 529 37,000  Level FlightAware UK
Sun 05:43:09 AM 59.3560 -6.4380 109° East 573 659 37,000  Level FlightAware ADS-B
Sun 05:43:39 AM 59.3234 -6.2550 109° East 460 529 37,000  Level FlightAware UK
Sun 05:43:53 AM 59.3170 -6.2230 109° East 573 659 37,000  Level FlightAware ADS-B
Sun 05:44:37 AM 59.2780 -6.0060 109° East 573 659 37,000  Level FlightAware ADS-B
Sun 05:44:57 AM 59.2610 -5.9180 109° East 573 659 37,000  Level FlightAware ADS-B
Sun 05:45:09 AM 59.2426 -5.8178 109° East 460 529 37,000  Level FlightAware UK
Sun 05:45:39 AM 59.2152 -5.6725 109° East 462 532 37,000  Level FlightAware UK
Sun 05:46:09 AM 59.1878 -5.5274 110° East 460 529 37,000  Level FlightAware UK
Sun 05:46:19 AM 59.1930 -5.5540 110° East 573 659 37,000  Level FlightAware ADS-B
Sun 05:47:01 AM 59.1420 -5.2900 111° Southeast 569 655 37,000  Level FlightAware ADS-B
Sun 05:47:39 AM 59.1048 -5.0942 111° Southeast 460 529 37,000  Level FlightAware UK
Sun 05:47:41 AM 59.1040 -5.0910 111° Southeast 569 655 37,000  Level FlightAware ADS-B
Sun 05:48:21 AM 59.0670 -4.9020 111° Southeast 568 654 37,000  Level FlightAware ADS-B
Sun 05:49:06 AM 59.0240 -4.6840 111° Southeast 567 652 37,000  Level FlightAware ADS-B
Sun 05:49:48 AM 58.9840 -4.4800 111° Southeast 570 656 37,000  Level FlightAware ADS-B
Sun 05:50:27 AM 58.9463 -4.2928 111° Southeast 460 529 37,000  Level FlightAware UK
Sun 05:50:41 AM 58.9350 -4.2350 111° Southeast 571 657 37,000  Level FlightAware ADS-B
Sun 05:51:27 AM 58.8884 -4.0077 111° Southeast 462 532 37,000  Level FlightAware UK
Sun 05:51:32 AM 58.8840 -3.9870 111° Southeast 571 657 37,000  Level FlightAware ADS-B
Sun 05:52:03 AM 58.8534 -3.8377 111° Southeast 460 529 37,000  Level FlightAware UK
Sun 05:52:13 AM 58.8460 -3.8010 111° Southeast 569 655 37,000  Level FlightAware ADS-B
Sun 05:52:58 AM 58.8020 -3.5910 112° Southeast 568 654 37,000  Level FlightAware ADS-B
Sun 05:53:33 AM 58.7654 -3.4153 112° Southeast 460 529 37,000  Level FlightAware UK
Sun 05:53:33 AM 58.7680 -3.4270 112° Southeast 565 650 37,000  Level FlightAware ADS-B
Sun 05:54:09 AM 58.7302 -3.2486 112° Southeast 458 527 37,000  Level FlightAware UK
Sun 05:54:13 AM 58.7300 -3.2480 112° Southeast 563 648 37,000  Level FlightAware ADS-B
Sun 05:54:58 AM 58.6870 -3.0450 112° Southeast 560 644 37,000  Level FlightAware ADS-B
Sun 05:55:28 AM 58.6529 -2.8875 112° Southeast 452 520 37,000  Level FlightAware UK
Sun 05:55:41 AM 58.6420 -2.8380 112° Southeast 555 639 37,000  Level FlightAware ADS-B
Sun 05:56:21 AM 58.6030 -2.6570 112° Southeast 550 633 37,000  Level FlightAware ADS-B
Sun 05:57:06 AM 58.5580 -2.4560 113° Southeast 548 631 37,000  Level FlightAware ADS-B
Sun 05:57:46 AM 58.5190 -2.2780 113° Southeast 548 631 37,000  Level FlightAware ADS-B
Sun 05:58:16 AM 58.4868 -2.1335 113° Southeast 448 516 37,000  Level FlightAware UK
Sun 05:58:21 AM 58.4840 -2.1210 113° Southeast 548 631 37,000  Level FlightAware ADS-B
Sun 05:58:52 AM 58.4505 -1.9720 113° Southeast 448 516 37,000  Level FlightAware UK
Sun 05:59:01 AM 58.4440 -1.9460 113° Southeast 549 632 37,000  Level FlightAware ADS-B
Sun 05:59:46 AM 58.3980 -1.7430 113° Southeast 548 631 37,000  Level FlightAware ADS-B
Sun 06:00:50 AM 58.3470 -1.5200 113° Southeast 549 632 37,000  Level FlightAware ADS-B
Sun 06:01:31 AM 58.2900 -1.2760 114° Southeast 550 633 37,000  Level FlightAware ADS-B
Sun 06:02:05 AM 58.2540 -1.1191 114° Southeast 446 513 37,000  Level FlightAware UK
Sun 06:02:16 AM 58.2450 -1.0810 114° Southeast 549 632 37,000  Level FlightAware ADS-B
Sun 06:02:47 AM 58.2102 -0.9343 114° Southeast 446 513 37,000  Level FlightAware UK
Sun 06:02:56 AM 58.2030 -0.9050 114° Southeast 549 632 37,000  Level FlightAware ADS-B
Sun 06:03:31 AM 58.1660 -0.7500 114° Southeast 550 633 37,000  Level FlightAware ADS-B
Sun 06:04:11 AM 58.1224 -0.5663 114° Southeast 448 516 37,000  Level FlightAware UK
Sun 06:04:16 AM 58.1190 -0.5530 114° Southeast 549 632 37,000  Level FlightAware ADS-B
Sun 06:04:56 AM 58.0770 -0.3790 114° Southeast 549 632 37,000  Level FlightAware ADS-B
Sun 06:05:31 AM 58.0410 -0.2320 115° Southeast 549 632 37,000  Level FlightAware ADS-B
Sun 06:06:11 AM 57.9949 -0.0433 115° Southeast 448 516 37,000  Level FlightAware UK
Sun 06:06:16 AM 57.9920 -0.0320 115° Southeast 546 628 37,000 600 Level FlightAware ADS-B
Sun 06:06:51 AM 57.9550 0.1160 115° Southeast 546 628 37,400 568 Climbing FlightAware ADS-B
Sun 06:07:30 AM 57.9105 0.2943 115° Southeast 452 520 37,700 590 Climbing FlightAware UK
Sun 06:07:52 AM 57.8870 0.3860 115° Southeast 550 633 38,000 600 Climbing FlightAware ADS-B
Sun 06:08:30 AM 57.8451 0.5544 115° Southeast 458 527 38,300 771 Climbing FlightAware UK
Sun 06:09:02 AM 57.8100 0.6910 115° Southeast 548 631 38,900 583 Climbing FlightAware ADS-B
Sun 06:09:42 AM 57.7661 0.8625 115° Southeast 460 529 39,000 107 Climbing FlightAware UK
Sun 06:09:58 AM 57.7510 0.9210 115° Southeast 541 623 39,000  Level FlightAware ADS-B
Sun 06:10:40 AM 57.7060 1.0940 116° Southeast 540 621 39,000  Level FlightAware ADS-B
Sun 06:11:18 AM 57.6614 1.2665 116° Southeast 460 529 39,000  Level FlightAware UK
Sun 06:11:48 AM 57.6285 1.3913 116° Southeast 460 529 39,000  Level FlightAware UK
Sun 06:11:49 AM 57.6280 1.3910 116° Southeast 538 619 39,000  Level FlightAware ADS-B
Sun 06:12:30 AM 57.5824 1.5654 116° Southeast 460 529 39,000  Level FlightAware UK
Sun 06:12:32 AM 57.5830 1.5610 116° Southeast 537 618 39,000  Level FlightAware ADS-B
Sun 06:13:06 AM 57.5430 1.7142 116° Southeast 456 525 39,000  Level FlightAware UK
Sun 06:13:17 AM 57.5340 1.7460 116° Southeast 537 618 39,000  Level FlightAware ADS-B
Sun 06:13:54 AM 57.4897 1.9124 116° Southeast 456 525 39,000  Level FlightAware UK
Sun 06:13:54 AM 57.4920 1.9030 116° Southeast 537 618 39,000  Level FlightAware ADS-B
Sun 06:14:25 AM 57.4560 2.0364 116° Southeast 456 525 39,000  Level FlightAware UK
Sun 06:14:38 AM 57.4430 2.0820 116° Southeast 538 619 39,000  Level FlightAware ADS-B
Sun 06:15:13 AM 57.3912 2.2228 116° Southeast 458 527 39,000  Level FlightAware UK
Sun 06:15:39 AM 57.3750 2.2610 116° Southeast 536 617 39,000  Level FlightAware ADS-B
Sun 06:16:16 AM 57.2990 2.4460 116° Southeast 536 617 39,000  Level FlightAware ADS-B
Sun 06:16:19 AM 57.2910 2.4645 116° Southeast 460 529 39,000  Level FlightAware UK
Sun 06:16:55 AM 57.2363 2.5971 116° Southeast 458 527 39,000  Level FlightAware UK
Sun 06:16:59 AM 57.2330 2.6050 116° Southeast 535 616 39,000  Level FlightAware ADS-B
Sun 06:17:42 AM 57.1690 2.7590 127° Southeast 535 616 39,000  Level FlightAware ADS-B
Sun 06:18:25 AM 57.1030 2.9140 128° Southeast 536 617 39,000  Level FlightAware ADS-B
Sun 06:19:01 AM 57.0440 3.0546 128° Southeast 456 525 39,000  Level FlightAware UK
Sun 06:19:08 AM 57.0360 3.0730 128° Southeast 537 618 39,000  Level FlightAware ADS-B
Sun 06:19:48 AM 56.9740 3.2190 128° Southeast 542 624 39,000  Level FlightAware ADS-B
Sun 06:20:32 AM 56.9050 3.3800 128° Southeast 540 621 39,000  Level FlightAware ADS-B
Sun 06:21:08 AM 56.8490 3.5080 129° Southeast 537 618 39,000  Level FlightAware ADS-B
Sun 06:21:48 AM 56.7880 3.6500 128° Southeast 536 617 39,000  Level FlightAware ADS-B
Sun 06:22:28 AM 56.7280 3.7880 128° Southeast 535 616 39,000  Level FlightAware ADS-B
Sun 06:23:08 AM 56.6670 3.9270 129° Southeast 536 617 39,000  Level FlightAware ADS-B
Sun 06:23:49 AM 56.6013 4.0781 129° Southeast 458 527 39,000  Level FlightAware UK
Sun 06:23:52 AM 56.5980 4.0840 129° Southeast 537 618 39,000  Level FlightAware ADS-B
Sun 06:24:25 AM 56.5454 4.2044 129° Southeast 462 532 39,000  Level FlightAware UK
Sun 06:24:36 AM 56.5290 4.2410 129° Southeast 534 615 39,000  Level FlightAware ADS-B
Sun 06:25:07 AM 56.4804 4.3501 129° Southeast 454 522 39,000  Level FlightAware UK
Sun 06:25:18 AM 56.4650 4.3830 129° Southeast 534 615 39,000  Level FlightAware ADS-B
Sun 06:25:58 AM 56.4030 4.5230 129° Southeast 536 617 39,000  Level FlightAware ADS-B
Sun 06:26:40 AM 56.3370 4.6670 129° Southeast 537 618 39,000  Level FlightAware ADS-B
Sun 06:26:43 AM 56.3314 4.6814 129° Southeast 1 1 39,000  Level FlightAware UK
Sun 06:27:22 AM 56.2700 4.8150 129° Southeast 538 619 39,000  Level FlightAware ADS-B
Sun 06:27:25 AM 56.2656 4.8261 129° Southeast 454 522 39,000  Level FlightAware UK
Sun 06:28:05 AM 56.2050 4.9570 129° Southeast 537 618 39,000  Level FlightAware ADS-B
Sun 06:28:49 AM 56.1329 5.1156 129° Southeast 460 529 39,000  Level FlightAware UK
Sun 06:28:50 AM 56.1330 5.1150 129° Southeast 535 616 39,000  Level FlightAware ADS-B
Sun 06:29:25 AM 56.0760 5.2390 129° Southeast 456 525 39,000  Level FlightAware UK
Sun 06:29:30 AM 56.0710 5.2490 129° Southeast 534 615 39,000  Level FlightAware ADS-B
Sun 06:30:06 AM 56.0140 5.3720 130° Southeast 533 613 39,000  Level FlightAware ADS-B
Sun 06:30:38 AM 55.9618 5.4837 130° Southeast 1 1 39,000  Level FlightAware UK
Sun 06:31:02 AM 55.9250 5.5600 130° Southeast 534 615 39,000  Level FlightAware ADS-B
Sun 06:31:44 AM 55.8579 5.7049 130° Southeast 1 1 39,000  Level FlightAware UK
Sun 06:31:46 AM 55.8570 5.7050 130° Southeast 528 608 39,000  Level FlightAware ADS-B
Sun 06:32:22 AM 55.7990 5.8280 130° Southeast 521 600 39,000  Level FlightAware ADS-B
Sun 06:32:58 AM 55.7440 5.9440 130° Southeast 523 602 39,000  Level FlightAware ADS-B
Sun 06:33:46 AM 55.6670 6.1030 131° Southeast 527 606 39,000  Level FlightAware ADS-B
Sun 06:34:18 AM 55.6190 6.2030 131° Southeast 529 609 39,000  Level FlightAware ADS-B
Sun 06:34:20 AM 55.6165 6.2097 131° Southeast 1 1 39,000  Level FlightAware UK
Sun 06:34:50 AM 55.5677 6.3107 131° Southeast 1 1 39,000  Level FlightAware UK
Sun 06:35:04 AM 55.5470 6.3540 131° Southeast 532 612 39,000  Level FlightAware ADS-B
Sun 06:35:42 AM 55.4850 6.4810 131° Southeast 531 611 39,000  Level FlightAware ADS-B
Sun 06:36:26 AM 55.4128 6.6290 131° Southeast 1 1 39,000  Level FlightAware UK
Sun 06:36:26 AM 55.4130 6.6280 131° Southeast 529 609 39,000  Level FlightAware ADS-B
Sun 06:36:56 AM 55.3648 6.7264 131° Southeast 1 1 39,000  Level FlightAware UK
Sun 06:37:09 AM 55.3460 6.7630 131° Southeast 528 608 39,000  Level FlightAware ADS-B
Sun 06:37:49 AM 55.2810 6.8960 131° Southeast 529 609 39,000  Level FlightAware ADS-B
Sun 06:38:33 AM 55.2100 7.0370 131° Southeast 530 610 39,000  Level FlightAware ADS-B
Sun 06:39:11 AM 55.1490 7.1600 131° Southeast 532 612 39,000  Level FlightAware ADS-B
Sun 06:39:57 AM 55.0760 7.3040 131° Southeast 531 611 39,000  Level FlightAware ADS-B
Sun 06:40:37 AM 55.0100 7.4340 131° Southeast 530 610 39,000  Level FlightAware ADS-B
Sun 06:41:17 AM 54.9440 7.5630 132° Southeast 528 608 39,000  Level FlightAware ADS-B
Sun 06:42:03 AM 54.8700 7.7080 132° Southeast 527 606 39,000  Level FlightAware ADS-B
Sun 06:42:43 AM 54.8050 7.8340 132° Southeast 526 605 39,000  Level FlightAware ADS-B
Sun 06:43:27 AM 54.7340 7.9710 132° Southeast 528 608 39,000  Level FlightAware ADS-B
Sun 06:44:07 AM 54.6690 8.0970 132° Southeast 528 608 39,000  Level FlightAware ADS-B
Sun 06:44:51 AM 54.5980 8.2330 132° Southeast 528 608 39,000  Level FlightAware ADS-B
Sun 06:45:03 AM 54.5790 8.2690 132° Southeast 527 606 39,000  Level FlightAware ADS-B
Sun 06:46:03 AM 54.4800 8.4550 132° Southeast 526 605 39,000  Level FlightAware ADS-B
Sun 06:46:48 AM 54.4060 8.5940 132° Southeast 525 604 39,000  Level FlightAware ADS-B
Sun 06:47:28 AM 54.3390 8.7200 132° Southeast 525 604 39,000  Level FlightAware ADS-B
Sun 06:48:18 AM 54.2590 8.8690 133° Southeast 525 604 39,000  Level FlightAware ADS-B
Sun 06:49:03 AM 54.1840 9.0080 133° Southeast 522 601 39,000  Level FlightAware ADS-B
Sun 06:49:43 AM 54.1180 9.1290 133° Southeast 520 598 39,000  Level FlightAware ADS-B
Sun 06:50:18 AM 54.0610 9.2340 133° Southeast 518 596 39,000  Level FlightAware ADS-B
Sun 06:51:03 AM 53.9880 9.3660 133° Southeast 515 593 39,000  Level FlightAware ADS-B
Sun 06:51:43 AM 53.9250 9.4810 133° Southeast 515 593 39,000  Level FlightAware ADS-B
Sun 06:52:23 AM 53.8580 9.6020 133° Southeast 515 593 39,000  Level FlightAware ADS-B
Sun 06:53:08 AM 53.7850 9.7320 134° Southeast 517 595 39,000  Level FlightAware ADS-B
Sun 06:53:48 AM 53.7200 9.8500 133° Southeast 518 596 39,000  Level FlightAware ADS-B
Sun 06:54:33 AM 53.6450 9.9810 134° Southeast 518 596 39,000  Level FlightAware ADS-B
Sun 06:55:08 AM 53.5880 10.0830 133° Southeast 517 595 39,000  Level FlightAware ADS-B
Sun 06:55:48 AM 53.5220 10.1980 134° Southeast 510 587 39,000  Level FlightAware ADS-B
Sun 06:56:28 AM 53.4580 10.3110 134° Southeast 500 575 39,000  Level FlightAware ADS-B
Sun 06:57:08 AM 53.3950 10.4210 134° Southeast 500 575 39,000  Level FlightAware ADS-B
Sun 06:57:49 AM 53.3300 10.5340 134° Southeast 500 575 39,000  Level FlightAware ADS-B
Sun 06:58:28 AM 53.2660 10.6450 134° Southeast 497 572 39,000  Level FlightAware ADS-B
Sun 06:59:08 AM 53.2020 10.7550 134° Southeast 495 570 39,000  Level FlightAware ADS-B
Sun 06:59:53 AM 53.1310 10.8750 135° Southeast 495 570 39,000  Level FlightAware ADS-B
Sun 07:00:33 AM 53.0680 10.9830 134° Southeast 495 570 39,000  Level FlightAware ADS-B
Sun 07:01:18 AM 52.9960 11.1050 134° Southeast 495 570 39,000  Level FlightAware ADS-B
Sun 07:01:58 AM 52.9310 11.2150 134° Southeast 493 567 39,000  Level FlightAware ADS-B
Sun 07:02:33 AM 52.8750 11.3080 135° Southeast 492 566 39,000  Level FlightAware ADS-B
Sun 07:03:18 AM 52.8030 11.4290 135° Southeast 490 564 39,000  Level FlightAware ADS-B
Sun 07:03:53 AM 52.7470 11.5220 135° Southeast 491 565 39,000  Level FlightAware ADS-B
Sun 07:04:28 AM 52.6920 11.6130 135° Southeast 491 565 39,000  Level FlightAware ADS-B
Sun 07:05:13 AM 52.6250 11.7250 135° Southeast 490 564 39,000  Level FlightAware ADS-B
Sun 07:05:55 AM 52.5570 11.8360 135° Southeast 489 563 39,000  Level FlightAware ADS-B
Sun 07:06:39 AM 52.4830 11.9570 135° Southeast 491 565 39,000  Level FlightAware ADS-B
Sun 07:07:23 AM 52.4130 12.0710 135° Southeast 489 563 39,000  Level FlightAware ADS-B
Sun 07:08:03 AM 52.3490 12.1740 135° Southeast 485 558 39,000  Level FlightAware ADS-B
Sun 07:08:45 AM 52.2830 12.2810 135° Southeast 481 554 39,000  Level FlightAware ADS-B
Sun 07:09:29 AM 52.2150 12.3900 135° Southeast 478 550 39,000  Level FlightAware ADS-B
Sun 07:10:11 AM 52.1480 12.4980 135° Southeast 478 550 39,000  Level FlightAware ADS-B
Sun 07:10:51 AM 52.0880 12.5930 136° Southeast 480 552 39,000  Level FlightAware ADS-B
Sun 07:11:36 AM 52.0160 12.7080 135° Southeast 480 552 39,000  Level FlightAware ADS-B
Sun 07:12:16 AM 51.9480 12.8150 136° Southeast 480 552 39,000  Level FlightAware ADS-B
Sun 07:12:56 AM 51.8840 12.9150 136° Southeast 481 554 39,000  Level FlightAware ADS-B
Sun 07:13:42 AM 51.8080 13.0190 140° Southeast 485 558 39,000  Level FlightAware ADS-B
Sun 07:14:22 AM 51.7370 13.1100 142° Southeast 484 557 39,000  Level FlightAware ADS-B
Sun 07:15:02 AM 51.6690 13.1980 141° Southeast 484 557 39,000  Level FlightAware ADS-B
Sun 07:15:46 AM 51.5890 13.3020 141° Southeast 485 558 39,000  Level FlightAware ADS-B
Sun 07:16:26 AM 51.5210 13.3920 141° Southeast 487 560 39,000  Level FlightAware ADS-B
Sun 07:17:24 AM 51.4200 13.5240 141° Southeast 486 559 39,000  Level FlightAware ADS-B
Sun 07:18:08 AM 51.3430 13.6240 141° Southeast 483 556 39,000  Level FlightAware ADS-B
Sun 07:18:48 AM 51.2740 13.7140 141° Southeast 481 554 39,000  Level FlightAware ADS-B
Sun 07:19:28 AM 51.2050 13.8040 141° Southeast 479 551 39,000  Level FlightAware ADS-B
Sun 07:20:08 AM 51.1360 13.8950 140° Southeast 481 554 39,000  Level FlightAware ADS-B
Sun 07:20:52 AM 51.0610 13.9940 140° Southeast 483 556 39,000  Level FlightAware ADS-B
Sun 07:21:36 AM 50.9870 14.0910 140° Southeast 486 559 39,000  Level FlightAware ADS-B
Sun 07:22:16 AM 50.9170 14.1830 140° Southeast 480 552 39,000  Level FlightAware ADS-B
Sun 07:22:58 AM 50.8480 14.2740 140° Southeast 477 549 39,000  Level FlightAware ADS-B
Sun 07:23:41 AM 50.7750 14.3700 140° Southeast 476 548 39,000  Level FlightAware ADS-B
Sun 07:24:21 AM 50.7080 14.4590 140° Southeast 476 548 39,000  Level FlightAware ADS-B
Sun 07:25:05 AM 50.6340 14.5560 140° Southeast 476 548 39,000  Level FlightAware ADS-B
Sun 07:25:49 AM 50.5620 14.6510 140° Southeast 478 550 39,000  Level FlightAware ADS-B
Sun 07:26:29 AM 50.4910 14.7450 140° Southeast 480 552 39,000  Level FlightAware ADS-B
Sun 07:27:04 AM 50.4300 14.8260 140° Southeast 479 551 39,000  Level FlightAware ADS-B
Sun 07:27:50 AM 50.3530 14.9290 140° Southeast 477 549 39,000  Level FlightAware ADS-B
Sun 07:28:30 AM 50.2870 15.0170 140° Southeast 476 548 39,000  Level FlightAware ADS-B
Sun 07:29:10 AM 50.2250 15.1130 135° Southeast 476 548 39,000  Level FlightAware ADS-B
Sun 07:29:54 AM 50.1580 15.2210 134° Southeast 475 547 39,000  Level FlightAware ADS-B
Sun 07:30:08 AM 50.1350 15.2560 136° Southeast 475 547 39,000  Level FlightAware ADS-B
Sun 07:31:04 AM 50.0500 15.3870 135° Southeast 475 547 39,000  Level FlightAware ADS-B
Sun 07:31:44 AM 49.9940 15.4740 135° Southeast 476 548 39,000  Level FlightAware ADS-B
Sun 07:32:33 AM 49.9110 15.6020 135° Southeast 478 550 39,000  Level FlightAware ADS-B (KSBY)
Sun 07:33:13 AM 49.8470 15.6990 136° Southeast 478 550 39,000  Level FlightAware ADS-B (KSBY)
Sun 07:33:57 AM 49.7790 15.8020 136° Southeast 478 550 39,000  Level FlightAware ADS-B (KSBY)
Sun 07:34:42 AM 49.7080 15.9090 136° Southeast 477 549 39,000  Level FlightAware ADS-B (KSBY)
Sun 07:35:22 AM 49.6460 16.0030 136° Southeast 475 547 39,000  Level FlightAware ADS-B (KSBY)
Sun 07:36:02 AM 49.5830 16.0980 136° Southeast 478 550 39,000  Level FlightAware ADS-B (KSBY)
Sun 07:36:43 AM 49.5190 16.1930 136° Southeast 476 548 39,000  Level FlightAware ADS-B (KSBY)
Sun 07:37:25 AM 49.4510 16.2940 136° Southeast 478 550 39,000  Level FlightAware ADS-B (KSBY)
Sun 07:38:11 AM 49.3770 16.4040 136° Southeast 478 550 39,000  Level FlightAware ADS-B (KSBY)
Sun 07:38:53 AM 49.3110 16.5020 136° Southeast 478 550 39,000  Level FlightAware ADS-B (KSBY)
Sun 07:39:31 AM 49.2520 16.5890 136° Southeast 475 547 39,000  Level FlightAware ADS-B (KSBY)
Sun 07:40:14 AM 49.1850 16.6870 136° Southeast 476 548 39,000  Level FlightAware ADS-B (KSBY)
Sun 07:40:54 AM 49.1200 16.7820 136° Southeast 474 545 39,000  Level FlightAware ADS-B (KSBY)
Sun 07:41:40 AM 49.0480 16.8890 136° Southeast 471 542 39,000  Level FlightAware ADS-B (KSBY)
Sun 07:42:21 AM 48.9890 16.9870 133° Southeast 471 542 39,000  Level FlightAware ADS-B (KSBY)
Sun 07:43:05 AM 48.9250 17.0930 133° Southeast 471 542 39,000  Level FlightAware ADS-B (KSBY)
Sun 07:43:45 AM 48.8660 17.1890 133° Southeast 471 542 39,000  Level FlightAware ADS-B (KSBY)
Sun 07:44:21 AM 48.8090 17.2830 133° Southeast 475 547 39,000  Level FlightAware ADS-B (KSBY)
Sun 07:44:57 AM 48.7550 17.3690 134° Southeast 476 548 39,000  Level FlightAware ADS-B (KSBY)
Sun 07:46:06 AM 48.6510 17.5360 133° Southeast 478 550 39,000  Level FlightAware ADS-B
Sun 07:46:44 AM 48.5940 17.6280 133° Southeast 478 550 39,000  Level FlightAware ADS-B
Sun 07:47:15 AM 48.5450 17.7060 133° Southeast 479 551 39,000  Level FlightAware ADS-B
Sun 07:47:58 AM 48.4800 17.8090 134° Southeast 480 552 39,000  Level FlightAware ADS-B
Sun 07:48:40 AM 48.4180 17.9070 134° Southeast 478 550 39,000  Level FlightAware ADS-B
Sun 07:49:23 AM 48.3520 18.0110 134° Southeast 476 548 39,000  Level FlightAware ADS-B
Sun 07:50:04 AM 48.2890 18.1110 133° Southeast 476 548 39,000  Level FlightAware ADS-B
Sun 07:50:44 AM 48.2270 18.2070 134° Southeast 476 548 39,000  Level FlightAware ADS-B
Sun 07:51:30 AM 48.1560 18.3170 134° Southeast 475 547 39,000  Level FlightAware ADS-B
Sun 07:52:10 AM 48.0950 18.4120 134° Southeast 475 547 39,000  Level FlightAware ADS-B
Sun 07:52:50 AM 48.0340 18.5070 134° Southeast 475 547 39,000  Level FlightAware ADS-B
Sun 07:53:35 AM 47.9670 18.6100 134° Southeast 478 550 39,000  Level FlightAware ADS-B
Sun 07:54:15 AM 47.9040 18.7060 134° Southeast 479 551 39,000  Level FlightAware ADS-B
Sun 07:54:59 AM 47.8370 18.8090 134° Southeast 476 548 39,000  Level FlightAware ADS-B
Sun 07:55:39 AM 47.7760 18.9020 134° Southeast 473 544 39,000  Level FlightAware ADS-B
Sun 07:56:24 AM 47.7070 19.0060 135° Southeast 477 549 39,000  Level FlightAware ADS-B
Sun 07:57:03 AM 47.6520 19.0890 135° Southeast 476 548 39,000  Level FlightAware ADS-B
Sun 07:58:01 AM 47.5590 19.2290 135° Southeast 476 548 39,000  Level FlightAware ADS-B (KSBY)
Sun 07:58:29 AM 47.5150 19.2940 135° Southeast 477 549 39,000  Level FlightAware ADS-B (KSBY)
Sun 07:59:17 AM 47.4380 19.4090 135° Southeast 476 548 39,000  Level FlightAware ADS-B
Sun 07:59:54 AM 47.3820 19.4930 135° Southeast 475 547 39,000  Level FlightAware ADS-B
Sun 08:00:57 AM 47.2850 19.6370 135° Southeast 476 548 39,000  Level FlightAware ADS-B
Sun 08:01:45 AM 47.2100 19.7470 135° Southeast 478 550 39,000  Level FlightAware ADS-B
Sun 08:02:26 AM 47.1470 19.8400 135° Southeast 479 551 39,000  Level FlightAware ADS-B
Sun 08:03:07 AM 47.0800 19.9380 135° Southeast 481 554 39,000  Level FlightAware ADS-B
Sun 08:03:43 AM 47.0260 20.0170 135° Southeast 482 555 39,000  Level FlightAware ADS-B
Sun 08:04:29 AM 46.9540 20.1210 135° Southeast 477 549 39,000  Level FlightAware ADS-B
Sun 08:05:08 AM 46.8970 20.2030 135° Southeast 481 554 39,000  Level FlightAware ADS-B
Sun 08:05:53 AM 46.8240 20.3080 135° Southeast 476 548 39,000  Level FlightAware ADS-B
Sun 08:06:33 AM 46.7560 20.4070 135° Southeast 475 547 39,000  Level FlightAware ADS-B
Sun 08:07:18 AM 46.6860 20.5070 136° Southeast 478 550 39,000  Level FlightAware ADS-B
Sun 08:08:03 AM 46.6120 20.6120 136° Southeast 480 552 39,000  Level FlightAware ADS-B
Sun 08:08:43 AM 46.5500 20.7010 135° Southeast 481 554 39,000  Level FlightAware ADS-B
Sun 08:09:23 AM 46.4840 20.7930 136° Southeast 483 556 39,000  Level FlightAware ADS-B
Sun 08:10:03 AM 46.4200 20.8840 136° Southeast 492 566 39,000  Level FlightAware ADS-B
Sun 08:10:48 AM 46.3490 20.9840 136° Southeast 492 566 39,000  Level FlightAware ADS-B
Sun 08:11:40 AM 46.2770 21.0850 136° Southeast 493 567 39,000  Level FlightAware ADS-B
Sun 08:12:18 AM 46.1940 21.1820 141° Southeast 491 565 39,000  Level FlightAware ADS-B
Sun 08:13:03 AM 46.1150 21.2760 140° Southeast 483 556 39,000  Level FlightAware ADS-B
Sun 08:13:43 AM 46.0460 21.3570 141° Southeast 483 556 39,000  Level FlightAware ADS-B
Sun 08:14:16 AM 45.9860 21.4260 141° Southeast 490 564 39,000  Level FlightAware ADS-B
Sun 08:15:01 AM 45.9060 21.5200 141° Southeast 491 565 39,000  Level FlightAware ADS-B
Sun 08:15:41 AM 45.8380 21.5970 142° Southeast 490 564 39,000  Level FlightAware ADS-B
Sun 08:16:21 AM 45.7650 21.6810 141° Southeast 491 565 39,000  Level FlightAware ADS-B
Sun 08:17:06 AM 45.6850 21.7730 141° Southeast 491 565 39,000  Level FlightAware ADS-B
Sun 08:17:51 AM 45.6070 21.8610 142° Southeast 491 565 39,000  Level FlightAware ADS-B
Sun 08:18:31 AM 45.5390 21.9390 141° Southeast 489 563 39,000  Level FlightAware ADS-B
Sun 08:19:27 AM 45.4430 22.0470 142° Southeast 488 562 39,000  Level FlightAware ADS-B
Sun 08:20:10 AM 45.3640 22.1360 142° Southeast 488 562 39,000  Level FlightAware ADS-B
Sun 08:20:52 AM 45.2920 22.2160 142° Southeast 487 560 39,000  Level FlightAware ADS-B
Sun 08:21:30 AM 45.2270 22.2900 141° Southeast 485 558 39,000  Level FlightAware ADS-B
Sun 08:22:26 AM 45.1200 22.4090 142° Southeast 477 549 39,000  Level FlightAware ADS-B
Sun 08:23:24 AM 45.0300 22.5080 142° Southeast 472 543 39,000  Level FlightAware ADS-B
Sun 08:24:06 AM 44.9480 22.5980 142° Southeast 470 541 39,000  Level FlightAware ADS-B
Sun 08:24:48 AM 44.8760 22.6780 142° Southeast 470 541 39,000  Level FlightAware ADS-B
Sun 08:25:30 AM 44.8040 22.7570 142° Southeast 470 541 39,000  Level FlightAware ADS-B
Sun 08:26:19 AM 44.7270 22.8410 142° Southeast 470 541 39,000  Level FlightAware ADS-B
Sun 08:27:02 AM 44.6610 22.9130 142° Southeast 470 541 39,000  Level FlightAware ADS-B
Sun 08:27:47 AM 44.5770 23.0240 137° Southeast 478 550 39,000  Level FlightAware ADS-B
Sun 08:28:18 AM 44.5330 23.0850 135° Southeast 479 551 39,000  Level FlightAware ADS-B
Sun 08:28:54 AM 44.4780 23.1610 135° Southeast 480 552 39,000  Level FlightAware ADS-B
Sun 08:29:42 AM 44.4040 23.2630 135° Southeast 480 552 39,000  Level FlightAware ADS-B
Sun 08:30:24 AM 44.3300 23.3660 135° Southeast 483 556 39,000  Level FlightAware ADS-B
Sun 08:31:04 AM 44.2690 23.4510 135° Southeast 487 560 39,000  Level FlightAware ADS-B
Sun 08:31:49 AM 44.1970 23.5490 136° Southeast 487 560 39,000  Level FlightAware ADS-B
Sun 08:32:32 AM 44.1290 23.6430 135° Southeast 480 552 39,000  Level FlightAware ADS-B
Sun 08:33:20 AM 44.0600 23.7580 130° Southeast 479 551 39,000  Level FlightAware ADS-B
Sun 08:34:05 AM 43.9800 23.8500 140° Southeast 474 545 39,000  Level FlightAware ADS-B
Sun 08:34:45 AM 43.9180 23.9300 137° Southeast 478 550 39,000  Level FlightAware ADS-B
Sun 08:35:20 AM 43.8600 24.0080 136° Southeast 480 552 39,000  Level FlightAware ADS-B
Sun 08:36:00 AM 43.7940 24.0980 135° Southeast 480 552 39,000  Level FlightAware ADS-B
Sun 08:36:45 AM 43.7220 24.1940 136° Southeast 482 555 39,000  Level FlightAware ADS-B
Sun 08:37:20 AM 43.6640 24.2710 136° Southeast 489 563 39,000  Level FlightAware ADS-B
Sun 08:38:00 AM 43.6000 24.3570 136° Southeast 490 564 39,000  Level FlightAware ADS-B
Sun 08:38:45 AM 43.5260 24.4550 136° Southeast 490 564 39,000  Level FlightAware ADS-B
Sun 08:39:25 AM 43.4610 24.5410 136° Southeast 492 566 39,000  Level FlightAware ADS-B
Sun 08:40:05 AM 43.3950 24.6280 136° Southeast 495 570 39,000  Level FlightAware ADS-B
Sun 08:40:45 AM 43.3280 24.7170 136° Southeast 501 577 39,000  Level FlightAware ADS-B
Sun 08:41:30 AM 43.2530 24.8160 136° Southeast 501 577 39,000  Level FlightAware ADS-B
Sun 08:42:20 AM 43.1680 24.9270 136° Southeast 499 574 39,000  Level FlightAware ADS-B
Sun 08:42:55 AM 43.1090 25.0030 137° Southeast 498 573 39,000  Level FlightAware ADS-B
Sun 08:43:44 AM 43.0250 25.1130 136° Southeast 497 572 39,000  Level FlightAware ADS-B
Sun 08:44:25 AM 42.9580 25.1990 137° Southeast 498 573 39,000  Level FlightAware ADS-B
Sun 08:45:45 AM 42.8210 25.3760 137° Southeast 503 579 39,000  Level FlightAware ADS-B
Sun 08:46:37 AM 42.7350 25.4860 137° Southeast 500 575 39,000  Level FlightAware ADS-B
Sun 08:47:17 AM 42.6720 25.5660 137° Southeast 499 574 39,000  Level FlightAware ADS-B
Sun 08:47:55 AM 42.6030 25.6550 136° Southeast 499 574 39,000  Level FlightAware ADS-B
Sun 08:48:29 AM 42.5510 25.7200 137° Southeast 498 573 39,000  Level FlightAware ADS-B
Sun 08:49:14 AM 42.4690 25.8240 137° Southeast 498 573 39,000 -71 Level FlightAware ADS-B
Sun 08:49:54 AM 42.4090 25.9000 137° Southeast 498 573 38,900 -628 Descending FlightAware ADS-B
Sun 08:50:40 AM 42.3240 26.0070 137° Southeast 503 579 38,100 -951 Descending FlightAware ADS-B
Sun 08:51:16 AM 42.2630 26.0830 137° Southeast 500 575 37,600 -951 Descending FlightAware ADS-B
Sun 08:52:02 AM 42.1850 26.1800 137° Southeast 498 573 36,800 -981 Descending FlightAware ADS-B
Sun 08:53:00 AM 42.0890 26.3000 137° Southeast 500 575 35,900 -970 Descending FlightAware ADS-B
Sun 08:53:41 AM 42.0210 26.3840 137° Southeast 507 583 35,200 -1,029 Descending FlightAware ADS-B
Sun 08:54:10 AM 41.9670 26.4510 137° Southeast 511 588 34,700 -1,043 Descending FlightAware ADS-B
Sun 08:54:50 AM 41.8980 26.5370 137° Southeast 517 595 34,000 -1,125 Descending FlightAware ADS-B
Sun 08:55:30 AM 41.8350 26.6350 131° Southeast 520 598 33,200 -1,271 Descending FlightAware ADS-B
Sun 08:56:15 AM 41.7740 26.7550 124° Southeast 527 606 32,200 -1,553 Descending FlightAware ADS-B
Sun 08:56:55 AM 41.7200 26.8620 124° Southeast 520 598 31,000 -1,867 Descending FlightAware ADS-B
Sun 08:57:45 AM 41.6530 26.9910 125° Southeast 508 585 29,400 -1,467 Descending FlightAware ADS-B
Sun 08:58:25 AM 41.6010 27.0910 125° Southeast 481 554 28,800 -1,412 Descending FlightAware ADS-B
Sun 08:59:10 AM 41.5440 27.2000 125° Southeast 473 544 27,400 -1,875 Descending FlightAware ADS-B
Sun 08:59:45 AM 41.5000 27.2840 125° Southeast 462 532 26,300 -957 Descending FlightAware ADS-B
Sun 09:00:19 AM 41.4650 27.3530 124° Southeast 462 532 26,300 -1,326 Level FlightAware ADS-B
Sun 09:01:20 AM 41.3850 27.5010 126° Southeast 448 516 24,200 -1,842 Descending FlightAware ADS-B
Sun 09:02:00 AM 41.3380 27.5880 126° Southeast 433 498 23,200 -1,650 Descending FlightAware ADS-B
Sun 09:02:40 AM 41.2930 27.6720 125° Southeast 424 488 22,000 -1,500 Descending FlightAware ADS-B
Sun 09:03:16 AM 41.2520 27.7480 126° Southeast 412 474 21,300 -1,533 Descending FlightAware ADS-B
Sun 09:04:10 AM 41.1920 27.8580 126° Southeast 398 458 19,700 -1,154 Descending FlightAware ADS-B
Sun 09:05:00 AM 41.1430 27.9490 126° Southeast 369 425 19,300 -725 Descending FlightAware ADS-B
Sun 09:05:41 AM 41.1010 28.0310 124° Southeast 352 405 18,600 -1,099 Descending FlightAware ADS-B
Sun 09:06:11 AM 41.0780 28.0880 118° Southeast 351 404 18,000 -1,320 Descending FlightAware ADS-B
Sun 09:06:31 AM 41.0810 28.1310 85° East 350 403 17,500 -1,300 Descending FlightAware ADS-B
Sun 09:07:11 AM 41.1160 28.2060 58° Northeast 343 395 16,700 -1,200 Descending FlightAware ADS-B
Sun 09:07:46 AM 41.1410 28.2610 59° Northeast 341 392 16,000 -1,125 Descending FlightAware ADS-B
Sun 09:08:31 AM 41.1790 28.3420 58° Northeast 334 384 15,200 -1,200 Descending FlightAware ADS-B
Sun 09:09:16 AM 41.2120 28.4200 61° Northeast 329 379 14,200 -1,360 Descending FlightAware ADS-B
Sun 09:09:46 AM 41.2060 28.4750 98° East 324 373 13,500 -1,350 Descending FlightAware ADS-B
Sun 09:09:56 AM 41.1930 28.4950 131° Southeast 320 368 13,300 -1,180 Descending FlightAware ADS-B
Sun 09:10:47 AM 41.1350 28.5430 148° Southeast 307 353 12,300 -1,146 Descending FlightAware ADS-B
Sun 09:11:25 AM 41.0850 28.5830 149° Southeast 308 354 11,600 -892 Descending FlightAware ADS-B
Sun 09:12:01 AM 41.0410 28.6200 148° Southeast 270 311 11,200 -1,091 Descending FlightAware ADS-B
Sun 09:12:31 AM 41.0080 28.6280 170° South 252 290 10,400 -1,696 Descending FlightAware ADS-B
Sun 09:12:47 AM 40.9940 28.6160 213° Southwest 253 291 9,900 -2,200 Descending FlightAware ADS-B
Sun 09:13:01 AM 40.9830 28.5940 236° Southwest 248 285 9,300 -1,862 Descending FlightAware ADS-B
Sun 09:13:16 AM 40.9760 28.5780 240° Southwest 255 293 9,000 -1,050 Descending FlightAware ADS-B
Sun 09:13:41 AM 40.9610 28.5460 238° Southwest 246 283 8,600 -982 Descending FlightAware ADS-B
Sun 09:14:11 AM 40.9410 28.5050 237° Southwest 249 287 8,100 -1,100 Descending FlightAware ADS-B
Sun 09:14:41 AM 40.9230 28.4650 239° Southwest 248 285 7,500 -900 Descending FlightAware ADS-B
Sun 09:14:51 AM 40.9190 28.4570 237° Southwest 248 285 7,500 -261 Level FlightAware ADS-B
Sun 09:15:27 AM 40.8980 28.4130 238° Southwest 246 283 7,300 -697 Descending FlightAware ADS-B
Sun 09:17:26 AM 40.7900 28.3120 215° Southwest 245 282 5,700 -766 Descending FlightAware ADS-B
Sun 09:17:48 AM 40.7660 28.3190 168° South 250 288 5,500 -533 Descending FlightAware ADS-B
Sun 09:18:11 AM 40.7520 28.3500 121° Southeast 245 282 5,300 -453 Descending FlightAware ADS-B
Sun 09:18:41 AM 40.7680 28.3870 60° Northeast 231 266 5,100 -429 Descending FlightAware ADS-B
Sun 09:19:07 AM 40.7810 28.4150 58° Northeast 227 261 4,900 -500 Descending FlightAware ADS-B
Sun 09:19:41 AM 40.8020 28.4580 57° Northeast 224 258 4,600 -500 Descending FlightAware ADS-B
Sun 09:20:07 AM 40.8160 28.4890 59° Northeast 227 261 4,400 -480 Descending FlightAware ADS-B
Sun 09:20:31 AM 40.8290 28.5160 58° Northeast 226 260 4,200 -444 Descending FlightAware ADS-B
Sun 09:21:01 AM 40.8470 28.5550 59° Northeast 225 259 4,000 -400 Descending FlightAware ADS-B
Sun 09:21:46 AM 40.8710 28.6060 58° Northeast 212 244 3,700 -646 Descending FlightAware ADS-B
Sun 09:22:06 AM 40.8810 28.6290 60° Northeast 215 247 3,300 -1,304 Descending FlightAware ADS-B
Sun 09:22:32 AM 40.8950 28.6570 57° Northeast 215 247 2,700 -1,200 Descending FlightAware ADS-B
Sun 09:22:46 AM 40.9020 28.6720 58° Northeast 201 231 2,500 -923 Descending FlightAware ADS-B
Sun 09:23:11 AM 40.9130 28.6970 60° Northeast 184 212 2,100 -982 Descending FlightAware ADS-B
Sun 09:23:41 AM 40.9260 28.7250 58° Northeast 162 186 1,600 -857 Descending FlightAware ADS-B
Sun 09:24:21 AM 40.9390 28.7530 58° Northeast 134 154 1,100 -706 Descending FlightAware ADS-B
Sun 09:25:06 AM 40.9550 28.7860 57° Northeast 133 153 600 -686 Descending FlightAware ADS-B
Sun 09:25:31 AM 40.9620 28.8020 60° Northeast 133 153 300 -353 Descending FlightAware ADS-B
Sun 09:25:57 AM 40.9690 28.8180 60° Northeast 133 153 300  Level FlightAware ADS-B
Sun 09:27:32 AM 40.9770 28.8300 49° Northeast 18 21 -189 Descending FlightAware ADS-B
Sun 09:28:16 AM 40.9750 28.8250 242° Southwest 27 31  Level FlightAware ADS-B
Sun 09:28:43 AM 40.9730 28.8220 229° Southwest 27 31  Level FlightAware ADS-B
Sun 09:29:46 AM 40.9710 28.8140 252° West 11 13  Level FlightAware ADS-B
Sun 09:30:41 AM 40.9730 28.8140 360° North 12 14  Level FlightAware ADS-B
Sun 09:31:31 AM 40.9750 28.8130 339° North 11 13  Level FlightAware ADS-B
Sun 09:31:56 AM 40.9760 28.8120 323° Northwest 10 12  Level FlightAware ADS-B
Sun 09:33:06 AM 40.9800 28.8120 360° North 16 18  Level FlightAware ADS-B
Sun 09:33:37 AM 40.9830 28.8120 360° North 17 20  Level FlightAware ADS-B
Sun 09:36:00 AM 40.9769 28.8211 143° Southeast  Level Estimated
Sun 09:36:06 AM 40.9840 28.8140 143° Southeast 12 14  Level FlightAware ADS-B

Login

Don't have an account? Register now (free) for customized features, flight alerts, and more!